createdAt,value
2018-09-02T00:01:28.512Z,99.90
2018-09-02T00:03:57.010Z,99.90
2018-09-02T00:06:25.878Z,99.90
2018-09-02T00:08:54.353Z,99.90
2018-09-02T00:11:22.871Z,99.90
2018-09-02T00:13:51.386Z,99.90
2018-09-02T00:16:19.896Z,99.90
2018-09-02T00:18:48.385Z,99.90
2018-09-02T00:21:16.918Z,99.90
2018-09-02T00:23:45.427Z,99.90
2018-09-02T00:26:13.953Z,99.90
2018-09-02T00:28:42.791Z,99.90
2018-09-02T00:31:11.289Z,99.90
2018-09-02T00:33:39.799Z,99.90
2018-09-02T00:36:08.337Z,99.90
2018-09-02T00:38:36.825Z,99.90
2018-09-02T00:41:05.550Z,99.90
2018-09-02T00:43:34.074Z,99.90
2018-09-02T00:46:02.597Z,99.90
2018-09-02T00:48:31.129Z,99.90
2018-09-02T00:50:59.674Z,99.90
2018-09-02T00:53:28.279Z,99.90
2018-09-02T00:55:56.782Z,99.90
2018-09-02T00:58:25.329Z,99.90
2018-09-02T01:00:53.848Z,99.90
2018-09-02T01:03:22.393Z,99.90
2018-09-02T01:05:51.659Z,99.90
2018-09-02T01:08:20.231Z,99.90
2018-09-02T01:10:49.449Z,99.90
2018-09-02T01:13:18.404Z,99.90
2018-09-02T01:15:47.750Z,99.90
2018-09-02T01:18:16.598Z,99.90
2018-09-02T01:20:45.090Z,99.90
2018-09-02T01:23:13.700Z,99.90
2018-09-02T01:25:42.134Z,99.90
2018-09-02T01:28:10.618Z,99.90
2018-09-02T01:30:39.247Z,99.90
2018-09-02T01:33:08.525Z,99.90
2018-09-02T01:35:37.097Z,99.90
2018-09-02T01:38:06.113Z,99.90
2018-09-02T01:40:35.498Z,99.90
2018-09-02T01:43:04.625Z,99.90
2018-09-02T01:45:33.646Z,99.90
2018-09-02T01:48:02.878Z,99.90
2018-09-02T01:50:31.377Z,99.90
2018-09-02T01:52:59.950Z,99.90
2018-09-02T01:55:28.459Z,99.90
2018-09-02T02:00:47.813Z,99.90
2018-09-02T02:03:16.356Z,99.90
2018-09-02T02:05:44.862Z,99.90
2018-09-02T02:08:13.401Z,99.90
2018-09-02T02:10:41.895Z,99.90
2018-09-02T02:13:10.370Z,99.90
2018-09-02T02:15:38.874Z,99.90
2018-09-02T02:18:07.429Z,99.90
2018-09-02T02:20:35.957Z,99.90
2018-09-02T02:23:04.467Z,99.90
2018-09-02T02:25:33.117Z,99.90
2018-09-02T02:28:01.624Z,99.90
2018-09-02T02:30:30.146Z,99.90
2018-09-02T02:32:58.651Z,99.90
2018-09-02T02:35:27.197Z,99.90
2018-09-02T02:37:55.709Z,99.90
2018-09-02T02:40:24.294Z,99.90
2018-09-02T02:42:52.825Z,99.90
2018-09-02T02:45:21.364Z,99.90
2018-09-02T02:47:49.851Z,99.90
2018-09-02T02:50:18.401Z,99.90
2018-09-02T02:52:52.218Z,99.90
2018-09-02T02:55:20.772Z,99.90
2018-09-02T02:57:49.255Z,99.90
2018-09-02T03:00:17.784Z,99.90
2018-09-02T03:02:46.276Z,99.90
2018-09-02T03:05:14.788Z,99.90
2018-09-02T03:07:43.286Z,99.90
2018-09-02T03:10:11.814Z,99.90
2018-09-02T03:12:40.290Z,99.90
2018-09-02T03:15:08.929Z,99.90
2018-09-02T03:17:37.491Z,99.90
2018-09-02T03:20:06.063Z,99.90
2018-09-02T03:22:34.573Z,99.90
2018-09-02T03:25:03.090Z,99.90
2018-09-02T03:27:31.698Z,99.90
2018-09-02T03:30:00.181Z,99.90
2018-09-02T03:32:28.748Z,99.90
2018-09-02T03:34:57.263Z,99.90
2018-09-02T03:37:25.786Z,99.90
2018-09-02T03:39:54.281Z,99.90
2018-09-02T03:42:22.858Z,99.90
2018-09-02T03:44:51.411Z,99.90
2018-09-02T03:47:19.941Z,99.90
2018-09-02T03:49:48.441Z,99.90
2018-09-02T03:52:16.990Z,99.90
2018-09-02T03:54:45.473Z,99.90
2018-09-02T03:57:14.034Z,99.90
2018-09-02T03:59:42.530Z,99.90
2018-09-02T04:02:11.027Z,99.90
2018-09-02T04:04:39.579Z,99.90
2018-09-02T04:07:08.131Z,99.90
2018-09-02T04:09:36.668Z,99.90
2018-09-02T04:12:05.225Z,99.90
2018-09-02T04:14:34.364Z,99.90
2018-09-02T04:17:02.845Z,99.90
2018-09-02T04:19:31.350Z,99.90
2018-09-02T04:22:00.033Z,99.90
2018-09-02T04:24:28.586Z,99.90
2018-09-02T04:26:57.059Z,99.90
2018-09-02T04:29:25.612Z,99.90
2018-09-02T04:31:54.134Z,99.90
2018-09-02T04:34:22.717Z,99.90
2018-09-02T04:36:51.210Z,99.90
2018-09-02T04:39:19.721Z,99.90
2018-09-02T04:41:48.266Z,99.90
2018-09-02T04:44:16.780Z,99.90
2018-09-02T04:46:45.250Z,99.90
2018-09-02T04:49:13.801Z,99.90
2018-09-02T04:51:42.297Z,99.90
2018-09-02T04:54:10.902Z,99.90
2018-09-02T04:56:39.468Z,99.90
2018-09-02T04:59:08.094Z,99.90
2018-09-02T05:01:36.650Z,99.90
2018-09-02T05:04:05.171Z,99.90
2018-09-02T05:06:33.676Z,99.90
2018-09-02T05:09:02.137Z,99.90
2018-09-02T05:11:30.675Z,99.90
2018-09-02T05:13:59.504Z,99.90
2018-09-02T05:16:28.023Z,99.90
2018-09-02T05:18:56.530Z,99.90
2018-09-02T05:21:25.054Z,99.90
2018-09-02T05:23:54.817Z,99.90
2018-09-02T05:26:23.334Z,99.90
2018-09-02T05:28:51.790Z,99.90
2018-09-02T05:31:20.316Z,99.90
2018-09-02T05:33:48.791Z,99.90
2018-09-02T05:36:17.317Z,99.90
2018-09-02T05:38:45.799Z,99.90
2018-09-02T05:41:14.343Z,99.90
2018-09-02T05:43:42.810Z,99.90
2018-09-02T05:46:11.406Z,99.90
2018-09-02T05:48:39.992Z,99.90
2018-09-02T05:51:08.533Z,99.90
2018-09-02T05:53:37.062Z,99.90
2018-09-02T05:56:05.614Z,99.90
2018-09-02T05:58:34.156Z,99.90
2018-09-02T06:01:02.687Z,99.90
2018-09-02T06:03:31.211Z,99.90
2018-09-02T06:06:00.028Z,99.90
2018-09-02T06:08:28.679Z,99.90
2018-09-02T06:10:57.359Z,99.90
2018-09-02T06:13:26.070Z,99.90
2018-09-02T06:15:54.618Z,99.90
2018-09-02T06:18:23.247Z,99.90
2018-09-02T06:20:51.849Z,99.90
2018-09-02T06:23:20.392Z,99.90
2018-09-02T06:25:48.933Z,99.90
2018-09-02T06:28:17.442Z,99.90
2018-09-02T06:30:45.929Z,99.90
2018-09-02T06:33:14.454Z,99.90
2018-09-02T06:35:42.930Z,99.90
2018-09-02T06:38:11.469Z,99.90
2018-09-02T06:40:40.181Z,99.90
2018-09-02T06:43:08.812Z,99.90
2018-09-02T06:45:37.408Z,99.90
2018-09-02T06:48:06.008Z,99.90
2018-09-02T06:50:34.538Z,99.90
2018-09-02T06:53:03.064Z,99.90
2018-09-02T06:55:31.602Z,95.40
2018-09-02T06:58:00.083Z,90.60
2018-09-02T07:00:28.659Z,82.60
2018-09-02T07:02:57.173Z,74.80
2018-09-02T07:05:25.957Z,69.20
2018-09-02T07:07:54.453Z,63.60
2018-09-02T07:10:22.957Z,61.90
2018-09-02T07:12:51.446Z,59.90
2018-09-02T07:15:20.030Z,58.90
2018-09-02T07:17:48.573Z,55.90
2018-09-02T07:20:17.226Z,55.90
2018-09-02T07:22:45.716Z,53.80
2018-09-02T07:25:14.266Z,52.00
2018-09-02T07:27:42.867Z,49.70
2018-09-02T07:30:11.406Z,50.10
2018-09-02T07:32:39.965Z,48.50
2018-09-02T07:35:08.435Z,49.60
2018-09-02T07:37:37.017Z,47.50
2018-09-02T07:40:05.599Z,46.30
2018-09-02T07:42:34.230Z,45.20
2018-09-02T07:45:02.742Z,45.30
2018-09-02T07:47:31.304Z,44.70
2018-09-02T07:49:59.845Z,44.90
2018-09-02T07:52:28.586Z,45.70
2018-09-02T07:54:57.094Z,44.30
2018-09-02T07:57:25.607Z,43.70
2018-09-02T07:59:54.089Z,42.00
2018-09-02T08:02:22.781Z,42.10
2018-09-02T08:04:51.349Z,42.20
2018-09-02T08:07:19.880Z,41.00
2018-09-02T08:09:48.415Z,41.10
2018-09-02T08:12:17.001Z,40.80
2018-09-02T08:14:45.462Z,40.80
2018-09-02T08:17:13.998Z,40.70
2018-09-02T08:19:42.573Z,40.60
2018-09-02T08:22:11.021Z,39.10
2018-09-02T08:24:39.526Z,40.00
2018-09-02T08:27:08.019Z,42.10
2018-09-02T08:29:36.953Z,41.00
2018-09-02T08:32:05.489Z,40.60
2018-09-02T08:34:34.043Z,39.80
2018-09-02T08:37:02.542Z,39.80
2018-09-02T08:39:31.110Z,39.90
2018-09-02T08:41:59.639Z,39.80
2018-09-02T08:44:28.187Z,40.00
2018-09-02T08:46:56.750Z,38.30
2018-09-02T08:49:25.274Z,38.50
2018-09-02T08:51:53.775Z,39.20
2018-09-02T08:54:22.312Z,37.90
2018-09-02T08:56:50.886Z,38.70
2018-09-02T08:59:19.432Z,39.90
2018-09-02T09:01:48.030Z,39.80
2018-09-02T09:04:16.477Z,38.70
2018-09-02T09:06:45.026Z,37.70
2018-09-02T09:09:13.865Z,37.80
2018-09-02T09:11:42.151Z,38.40
2018-09-02T09:14:10.715Z,39.80
2018-09-02T09:16:39.336Z,40.70
2018-09-02T09:19:07.818Z,39.50
2018-09-02T09:21:36.449Z,39.60
2018-09-02T09:24:05.313Z,40.70
2018-09-02T09:26:33.890Z,39.40
2018-09-02T09:29:02.381Z,39.00
2018-09-02T09:31:30.929Z,40.70
2018-09-02T09:33:59.823Z,38.60
2018-09-02T09:36:28.353Z,38.20
2018-09-02T09:38:56.931Z,39.00
2018-09-02T09:41:25.451Z,38.50
2018-09-02T09:43:53.962Z,40.30
2018-09-02T09:46:22.502Z,40.00
2018-09-02T09:48:50.969Z,39.80
2018-09-02T09:51:19.486Z,39.20
2018-09-02T09:53:47.988Z,39.90
2018-09-02T09:56:16.512Z,39.60
2018-09-02T09:58:44.994Z,39.40
2018-09-02T10:01:13.594Z,38.40
2018-09-02T10:03:42.183Z,37.60
2018-09-02T10:06:10.654Z,36.80
2018-09-02T10:08:39.133Z,36.70
2018-09-02T10:11:07.777Z,38.60
2018-09-02T10:13:36.278Z,38.80
2018-09-02T10:16:04.834Z,37.90
2018-09-02T10:18:33.337Z,38.20
2018-09-02T10:21:01.947Z,38.00
2018-09-02T10:23:30.463Z,37.20
2018-09-02T10:25:58.945Z,36.00
2018-09-02T10:28:27.435Z,37.00
2018-09-02T10:30:55.934Z,39.00
2018-09-02T10:33:24.454Z,40.90
2018-09-02T10:35:52.950Z,42.20
2018-09-02T10:38:21.557Z,42.70
2018-09-02T10:40:50.141Z,43.80
2018-09-02T10:43:18.693Z,42.80
2018-09-02T10:45:47.182Z,44.10
2018-09-02T10:48:15.760Z,44.20
2018-09-02T10:50:44.278Z,43.90
2018-09-02T10:53:12.859Z,44.40
2018-09-02T10:55:41.961Z,43.50
2018-09-02T10:58:12.415Z,44.00
2018-09-02T11:00:40.914Z,42.80
2018-09-02T11:03:09.411Z,43.00
2018-09-02T11:05:37.928Z,44.90
2018-09-02T11:08:06.572Z,46.00
2018-09-02T11:10:35.387Z,45.80
2018-09-02T11:13:03.913Z,45.50
2018-09-02T11:15:32.566Z,45.70
2018-09-02T11:18:01.098Z,45.80
2018-09-02T11:20:29.715Z,47.50
2018-09-02T11:22:58.194Z,47.80
2018-09-02T11:25:26.758Z,48.70
2018-09-02T11:27:55.243Z,50.20
2018-09-02T11:30:23.791Z,49.80
2018-09-02T11:32:52.454Z,50.80
2018-09-02T11:35:21.174Z,50.60
2018-09-02T11:37:49.930Z,51.00
2018-09-02T11:40:21.035Z,50.80
2018-09-02T11:42:50.416Z,51.00
2018-09-02T11:45:18.954Z,50.20
2018-09-02T11:47:47.415Z,50.20
2018-09-02T11:50:16.168Z,50.90
2018-09-02T11:52:45.051Z,51.20
2018-09-02T11:55:13.589Z,51.30
2018-09-02T11:57:42.183Z,51.30
2018-09-02T12:00:10.654Z,50.80
2018-09-02T12:02:39.196Z,51.10
2018-09-02T12:05:07.706Z,51.20
2018-09-02T12:07:36.376Z,51.80
2018-09-02T12:10:04.974Z,52.80
2018-09-02T12:12:33.485Z,53.30
2018-09-02T12:15:02.938Z,53.40
2018-09-02T12:17:31.511Z,53.50
2018-09-02T12:20:00.209Z,53.30
2018-09-02T12:22:28.762Z,53.30
2018-09-02T12:24:57.291Z,53.00
2018-09-02T12:27:25.853Z,52.70
2018-09-02T12:29:54.355Z,52.30
2018-09-02T12:32:23.399Z,52.10
2018-09-02T12:34:51.917Z,51.70
2018-09-02T12:37:20.487Z,51.90
2018-09-02T12:39:49.022Z,51.90
2018-09-02T12:42:17.637Z,52.10
2018-09-02T12:44:46.149Z,52.30
2018-09-02T12:47:14.704Z,52.30
2018-09-02T12:49:43.354Z,52.40
2018-09-02T12:52:11.875Z,52.60
2018-09-02T12:54:40.434Z,52.80
2018-09-02T12:57:08.935Z,53.50
2018-09-02T12:59:37.602Z,53.70
2018-09-02T13:02:06.166Z,52.70
2018-09-02T13:04:34.673Z,52.10
2018-09-02T13:07:03.198Z,51.80
2018-09-02T13:09:31.882Z,51.80
2018-09-02T13:12:00.389Z,51.20
2018-09-02T13:14:28.975Z,51.20
2018-09-02T13:16:57.494Z,51.30
2018-09-02T13:19:26.038Z,51.80
2018-09-02T13:21:54.698Z,51.20
2018-09-02T13:24:23.245Z,50.40
2018-09-02T13:26:51.850Z,49.10
2018-09-02T13:29:20.426Z,48.40
2018-09-02T13:31:49.034Z,48.40
2018-09-02T13:34:17.522Z,48.70
2018-09-02T13:36:46.092Z,48.30
2018-09-02T13:39:14.728Z,48.40
2018-09-02T13:41:43.248Z,48.70
2018-09-02T13:44:11.814Z,48.40
2018-09-02T13:46:44.576Z,47.80
2018-09-02T13:49:13.128Z,47.60
2018-09-02T13:51:41.792Z,46.80
2018-09-02T13:54:10.266Z,47.20
2018-09-02T13:56:38.796Z,47.50
2018-09-02T13:59:07.295Z,46.90
2018-09-02T14:01:35.833Z,47.40
2018-09-02T14:04:04.371Z,47.60
2018-09-02T14:06:32.927Z,47.50
2018-09-02T14:09:01.481Z,47.70
2018-09-02T14:11:30.019Z,47.60
2018-09-02T14:13:58.532Z,47.90
2018-09-02T14:16:27.100Z,47.40
2018-09-02T14:18:55.601Z,47.20
2018-09-02T14:21:24.188Z,47.10
2018-09-02T14:23:52.700Z,46.10
2018-09-02T14:26:21.279Z,46.30
2018-09-02T14:28:49.780Z,46.00
2018-09-02T14:31:18.304Z,46.70
2018-09-02T14:33:46.815Z,47.10
2018-09-02T14:36:15.318Z,46.50
2018-09-02T14:38:43.918Z,47.60
2018-09-02T14:41:12.464Z,47.00
2018-09-02T14:43:41.274Z,46.80
2018-09-02T14:46:09.767Z,47.30
2018-09-02T14:48:38.374Z,47.20
2018-09-02T14:51:06.935Z,46.50
2018-09-02T14:53:35.500Z,47.20
2018-09-02T14:56:04.120Z,46.70
2018-09-02T14:58:32.689Z,46.60
2018-09-02T15:01:01.222Z,47.10
2018-09-02T15:03:29.869Z,46.10
2018-09-02T15:05:58.446Z,46.70
2018-09-02T15:08:26.991Z,46.50
2018-09-02T15:10:55.501Z,46.70
2018-09-02T15:13:24.071Z,47.00
2018-09-02T15:15:52.711Z,47.40
2018-09-02T15:18:21.307Z,47.80
2018-09-02T15:20:49.892Z,48.00
2018-09-02T15:23:18.447Z,48.10
2018-09-02T15:25:46.968Z,48.70
2018-09-02T15:28:15.734Z,49.00
2018-09-02T15:30:44.267Z,49.20
2018-09-02T15:33:12.807Z,48.80
2018-09-02T15:35:41.437Z,48.30
2018-09-02T15:38:10.030Z,49.00
2018-09-02T15:40:38.517Z,48.90
2018-09-02T15:43:07.098Z,49.20
2018-09-02T15:45:35.606Z,49.20
2018-09-02T15:48:04.418Z,49.00
2018-09-02T15:50:32.933Z,49.10
2018-09-02T15:53:01.419Z,49.50
2018-09-02T15:55:29.990Z,49.60
2018-09-02T15:57:58.524Z,49.50
2018-09-02T16:00:27.029Z,50.10
2018-09-02T16:02:55.582Z,50.50
2018-09-02T16:05:24.186Z,50.30
2018-09-02T16:07:52.718Z,50.40
2018-09-02T16:10:21.231Z,50.10
2018-09-02T16:12:49.748Z,50.40
2018-09-02T16:15:18.375Z,51.10
2018-09-02T16:17:46.953Z,51.40
2018-09-02T16:20:15.532Z,51.40
2018-09-02T16:22:44.010Z,51.40
2018-09-02T16:25:12.586Z,51.60
2018-09-02T16:27:41.217Z,51.50
2018-09-02T16:30:09.863Z,51.50
2018-09-02T16:32:38.490Z,52.10
2018-09-02T16:35:07.130Z,52.40
2018-09-02T16:37:35.849Z,52.60
2018-09-02T16:40:04.426Z,53.20
2018-09-02T16:42:33.079Z,52.80
2018-09-02T16:45:01.680Z,52.80
2018-09-02T16:47:31.086Z,53.10
2018-09-02T16:49:59.623Z,53.40
2018-09-02T16:52:28.158Z,53.70
2018-09-02T16:54:56.645Z,53.70
2018-09-02T16:57:25.213Z,53.80
2018-09-02T16:59:53.862Z,53.60
2018-09-02T17:02:29.047Z,53.10
2018-09-02T17:05:03.669Z,53.00
2018-09-02T17:07:32.195Z,53.60
2018-09-02T17:10:00.691Z,54.10
2018-09-02T17:12:29.367Z,54.60
2018-09-02T17:14:57.733Z,54.60
2018-09-02T17:17:26.297Z,54.70
2018-09-02T17:19:57.012Z,54.50
2018-09-02T17:22:25.580Z,54.10
2018-09-02T17:24:54.163Z,54.00
2018-09-02T17:27:22.818Z,54.60
2018-09-02T17:29:51.385Z,55.10
2018-09-02T17:32:21.563Z,55.40
2018-09-02T17:34:50.134Z,55.70
2018-09-02T17:37:18.730Z,55.80
2018-09-02T17:39:47.267Z,55.70
2018-09-02T17:42:15.822Z,55.20
2018-09-02T17:44:44.431Z,55.00
2018-09-02T17:47:13.035Z,54.20
2018-09-02T17:49:41.579Z,53.50
2018-09-02T17:52:10.823Z,53.70
2018-09-02T17:54:39.408Z,53.70
2018-09-02T17:57:08.790Z,54.00
2018-09-02T17:59:37.322Z,54.90
2018-09-02T18:02:06.108Z,55.60
2018-09-02T18:04:34.696Z,56.30
2018-09-02T18:07:03.264Z,56.70
2018-09-02T18:09:31.774Z,57.00
2018-09-02T18:12:00.289Z,57.20
2018-09-02T18:14:28.839Z,57.20
2018-09-02T18:16:57.407Z,57.40
2018-09-02T18:19:26.009Z,57.50
2018-09-02T18:21:54.591Z,57.70
2018-09-02T18:24:23.237Z,58.00
2018-09-02T18:26:51.726Z,58.00
2018-09-02T18:29:20.258Z,58.20
2018-09-02T18:31:48.915Z,58.40
2018-09-02T18:34:17.490Z,58.80
2018-09-02T18:36:46.245Z,59.00
2018-09-02T18:39:14.815Z,59.00
2018-09-02T18:41:43.520Z,59.30
2018-09-02T18:44:12.105Z,59.40
2018-09-02T18:46:40.713Z,59.70
2018-09-02T18:49:10.160Z,60.00
2018-09-02T18:51:38.775Z,60.30
2018-09-02T18:54:07.455Z,60.50
2018-09-02T18:56:36.451Z,60.50
2018-09-02T18:59:06.692Z,60.60
2018-09-02T19:01:35.269Z,60.50
2018-09-02T19:04:03.805Z,60.70
2018-09-02T19:06:32.426Z,60.70
2018-09-02T19:09:01.044Z,60.30
2018-09-02T19:11:29.942Z,60.30
2018-09-02T19:13:59.582Z,60.90
2018-09-02T19:16:28.467Z,61.40
2018-09-02T19:18:57.012Z,61.90
2018-09-02T19:21:25.609Z,62.20
2018-09-02T19:23:54.236Z,62.70
2018-09-02T19:26:22.713Z,63.00
2018-09-02T19:28:51.269Z,63.30
2018-09-02T19:31:19.754Z,63.60
2018-09-02T19:33:48.363Z,64.10
2018-09-02T19:36:16.889Z,65.30
2018-09-02T19:38:45.619Z,64.80
2018-09-02T19:41:14.148Z,65.90
2018-09-02T19:43:42.862Z,65.50
2018-09-02T19:46:11.511Z,66.00
2018-09-02T19:48:40.139Z,66.30
2018-09-02T19:51:08.971Z,66.20
2018-09-02T19:53:38.314Z,66.20
2018-09-02T19:56:09.119Z,66.60
2018-09-02T19:58:37.695Z,67.10
2018-09-02T20:01:06.243Z,67.40
2018-09-02T20:03:34.966Z,67.60
2018-09-02T20:06:03.519Z,67.70
2018-09-02T20:08:32.091Z,67.80
2018-09-02T20:11:00.603Z,67.90
2018-09-02T20:13:29.117Z,68.80
2018-09-02T20:15:57.749Z,68.60
2018-09-02T20:18:26.482Z,68.80
2018-09-02T20:20:54.999Z,69.20
2018-09-02T20:23:23.595Z,70.30
2018-09-02T20:25:52.126Z,69.50
2018-09-02T20:28:20.651Z,70.10
2018-09-02T20:30:49.190Z,70.50
2018-09-02T20:33:17.810Z,71.00
2018-09-02T20:35:46.465Z,71.30
2018-09-02T20:38:14.994Z,71.90
2018-09-02T20:40:43.559Z,72.20
2018-09-02T20:43:12.151Z,72.70
2018-09-02T20:45:40.746Z,73.30
2018-09-02T20:48:09.289Z,73.80
2018-09-02T20:50:37.859Z,74.30
2018-09-02T20:53:06.439Z,74.90
2018-09-02T20:55:34.994Z,75.60
2018-09-02T20:58:03.590Z,76.10
2018-09-02T21:00:32.131Z,76.70
2018-09-02T21:03:00.645Z,77.30
2018-09-02T21:05:29.237Z,77.90
2018-09-02T21:07:57.750Z,78.60
2018-09-02T21:10:26.278Z,78.90
2018-09-02T21:12:54.807Z,79.60
2018-09-02T21:15:23.305Z,80.20
2018-09-02T21:17:51.978Z,80.50
2018-09-02T21:20:20.544Z,80.80
2018-09-02T21:22:49.097Z,81.20
2018-09-02T21:25:17.635Z,81.60
2018-09-02T21:27:47.582Z,81.80
2018-09-02T21:30:16.206Z,81.70
2018-09-02T21:32:44.800Z,82.00
2018-09-02T21:35:13.347Z,82.70
2018-09-02T21:37:41.876Z,83.20
2018-09-02T21:40:10.378Z,83.80
2018-09-02T21:42:38.965Z,84.30
2018-09-02T21:45:07.510Z,85.60
2018-09-02T21:47:36.064Z,85.40
2018-09-02T21:50:05.252Z,85.80
2018-09-02T21:52:33.858Z,86.90
2018-09-02T21:55:02.354Z,87.20
2018-09-02T21:57:31.019Z,87.90
2018-09-02T21:59:59.592Z,88.70
2018-09-02T22:02:28.222Z,89.20
2018-09-02T22:04:56.746Z,89.50
2018-09-02T22:07:25.340Z,90.00
2018-09-02T22:09:53.952Z,90.20
2018-09-02T22:12:22.594Z,90.50
2018-09-02T22:14:51.152Z,90.80
2018-09-02T22:17:19.686Z,90.80
2018-09-02T22:19:48.196Z,90.90
2018-09-02T22:22:16.687Z,91.20
2018-09-02T22:24:45.313Z,91.50
2018-09-02T22:27:13.925Z,91.50
2018-09-02T22:29:42.483Z,91.80
2018-09-02T22:32:11.157Z,92.50
2018-09-02T22:34:39.673Z,93.10
2018-09-02T22:37:08.253Z,93.60
2018-09-02T22:39:36.832Z,94.30
2018-09-02T22:42:05.370Z,95.10
2018-09-02T22:44:33.935Z,95.50
2018-09-02T22:47:02.662Z,96.30
2018-09-02T22:49:31.198Z,96.60
2018-09-02T22:51:59.710Z,97.10
2018-09-02T22:54:28.266Z,97.50
2018-09-02T22:56:56.891Z,98.10
2018-09-02T22:59:26.671Z,98.50
2018-09-02T23:01:55.329Z,99.30
2018-09-02T23:04:23.799Z,99.70
2018-09-02T23:06:52.339Z,99.90
2018-09-02T23:09:20.821Z,99.90
2018-09-02T23:11:49.336Z,99.90
2018-09-02T23:14:17.802Z,99.90
2018-09-02T23:16:46.429Z,99.90
2018-09-02T23:19:14.960Z,99.90
2018-09-02T23:21:43.495Z,99.90
2018-09-02T23:24:12.031Z,99.90
2018-09-02T23:26:40.571Z,99.90
2018-09-02T23:29:09.122Z,99.90
2018-09-02T23:31:37.703Z,99.90
2018-09-02T23:34:06.262Z,99.90
2018-09-02T23:36:34.819Z,99.90
2018-09-02T23:39:03.471Z,99.90
2018-09-02T23:41:32.050Z,99.90
2018-09-02T23:44:00.600Z,99.90
2018-09-02T23:46:29.167Z,99.90
2018-09-02T23:48:57.694Z,99.90
2018-09-02T23:51:26.220Z,99.90
2018-09-02T23:53:54.693Z,99.90
2018-09-02T23:56:23.208Z,99.90
2018-09-02T23:58:51.690Z,99.90
